Time;durP1;ratioP1;P1;durP2;ratioP2;P2;SDS_P1;SDS_P2;PMS_P1;PMS_P2;Temp;Humidity;BMP_temperature;BMP_pressure;BME280_temperature;BME280_humidity;BME280_pressure;Samples;Min_cycle;Max_cycle;Signal;HPM_P1;HPM_P2
2023/04/14 00:01:01;;;;;;;11.80;2.53;;;;;;;-145.69;100.00;52480.03;5054750;28;20199;-77
2023/04/14 00:03:29;;;;;;;12.03;2.90;;;;;;;-145.69;100.00;52487.97;5054559;28;20207;-77
2023/04/14 00:05:56;;;;;;;10.97;3.07;;;;;;;-145.69;100.00;52519.63;5054499;28;20199;-77
2023/04/14 00:08:22;;;;;;;9.77;2.17;;;;;;;-145.69;100.00;52487.97;5054401;28;20207;-77
2023/04/14 00:10:49;;;;;;;12.83;3.23;;;;;;;-145.69;100.00;52484.00;5061677;28;20207;-76
2023/04/14 00:13:15;;;;;;;15.83;2.60;;;;;;;-145.69;100.00;52489.94;5074073;28;20203;-77
2023/04/14 00:15:42;;;;;;;10.30;2.97;;;;;;;-145.69;100.00;52493.91;5074088;28;20194;-77
2023/04/14 00:18:08;;;;;;;11.50;3.10;;;;;;;-145.69;100.00;52491.91;5074143;28;20627;-76
2023/04/14 00:20:38;;;;;;;11.70;2.77;;;;;;;-145.69;100.00;52511.72;5074130;28;20206;-76
2023/04/14 00:23:05;;;;;;;11.73;3.00;;;;;;;-145.69;100.00;52535.47;5074023;28;20654;-76
2023/04/14 00:25:31;;;;;;;8.67;2.47;;;;;;;-145.69;100.00;52523.59;5074343;28;20205;-77
2023/04/14 00:27:58;;;;;;;10.83;2.30;;;;;;;-145.69;100.00;52511.72;5074255;28;20558;-76
2023/04/14 00:30:24;;;;;;;14.37;3.23;;;;;;;-145.69;100.00;52503.81;5073873;28;20198;-77
2023/04/14 00:32:51;;;;;;;12.50;2.77;;;;;;;-145.69;100.00;52511.72;5073899;28;20616;-77
2023/04/14 00:35:17;;;;;;;8.70;2.80;;;;;;;-145.69;100.00;52527.56;5073865;28;20199;-77
2023/04/14 00:37:45;;;;;;;8.20;2.93;;;;;;;-145.69;100.00;52493.91;5073813;28;20199;-77
2023/04/14 00:40:13;;;;;;;6.70;2.50;;;;;;;-145.69;100.00;52509.75;5073662;28;20230;-77
2023/04/14 00:42:43;;;;;;;17.20;3.17;;;;;;;-145.69;100.00;52523.59;5073797;28;20203;-77
2023/04/14 00:45:10;;;;;;;21.67;3.30;;;;;;;-145.69;100.00;52487.97;5073522;28;20669;-77
2023/04/14 00:47:37;;;;;;;12.33;2.80;;;;;;;-145.69;100.00;52519.63;5073645;28;20661;-77
2023/04/14 00:50:05;;;;;;;8.10;2.73;;;;;;;-145.69;100.00;52507.75;5073474;28;20203;-77
2023/04/14 00:52:32;;;;;;;9.67;2.93;;;;;;;-145.69;100.00;52511.72;5073518;28;20207;-77
2023/04/14 00:55:03;;;;;;;16.70;3.40;;;;;;;-145.69;100.00;52515.69;5073561;28;20210;-76
2023/04/14 00:57:32;;;;;;;18.10;3.60;;;;;;;-145.69;100.00;52474.09;5073662;28;20230;-77
2023/04/14 01:00:00;;;;;;;13.23;3.40;;;;;;;-145.69;100.00;52482.00;5073450;28;20226;-77
2023/04/14 01:02:26;;;;;;;6.70;3.20;;;;;;;-145.69;100.00;52501.81;5073302;28;20654;-77
2023/04/14 01:04:53;;;;;;;12.20;3.17;;;;;;;-145.69;100.00;52499.84;5073517;28;20203;-77
2023/04/14 01:07:20;;;;;;;11.70;2.93;;;;;;;-145.69;100.00;52511.72;5073135;28;20281;-78
2023/04/14 01:09:47;;;;;;;9.50;3.47;;;;;;;-145.69;100.00;52533.50;5073045;28;20252;-78
2023/04/14 01:12:26;;;;;;;4.77;2.30;;;;;;;-145.69;100.00;52468.16;5073188;28;20191;-77
2023/04/14 01:14:59;;;;;;;11.13;2.93;;;;;;;-145.69;100.00;52499.84;5072362;28;20657;-77
2023/04/14 01:17:32;;;;;;;14.17;3.37;;;;;;;-145.69;100.00;52519.63;5073205;28;20252;-77
2023/04/14 01:20:08;;;;;;;13.50;2.87;;;;;;;-145.69;100.00;52501.81;5073123;28;20229;-77
2023/04/14 01:22:43;;;;;;;13.13;3.00;;;;;;;-145.69;100.00;52531.53;5073038;28;20209;-77
2023/04/14 01:25:31;;;;;;;16.13;3.50;;;;;;;-145.69;100.00;52495.88;5071845;28;20201;-77
2023/04/14 01:28:15;;;;;;;6.80;2.97;;;;;;;-145.69;100.00;52493.91;5073058;28;20201;-77
2023/04/14 01:30:59;;;;;;;12.73;3.37;;;;;;;-145.69;100.00;52482.00;5073103;28;20198;-77
2023/04/14 01:33:30;;;;;;;8.63;2.87;;;;;;;-145.69;100.00;52493.91;5073108;28;20224;-77
2023/04/14 01:36:02;;;;;;;7.77;2.70;;;;;;;-145.69;100.00;52480.03;5072952;28;20211;-77
2023/04/14 01:38:34;;;;;;;15.27;3.03;;;;;;;-145.69;100.00;52499.84;5072864;28;20218;-78
2023/04/14 01:41:05;;;;;;;9.73;2.90;;;;;;;-145.69;100.00;52497.84;5073200;28;20203;-77
2023/04/14 01:43:33;;;;;;;13.73;2.83;;;;;;;-145.69;100.00;52503.81;5072853;28;20241;-78
2023/04/14 01:46:06;;;;;;;14.63;2.90;;;;;;;-145.69;100.00;52505.78;5072540;28;20197;-77
2023/04/14 01:48:34;;;;;;;11.50;3.40;;;;;;;-145.69;100.00;52511.72;5073158;28;20212;-77
2023/04/14 01:51:03;;;;;;;11.60;3.33;;;;;;;-145.69;100.00;52509.75;5068963;28;20657;-77
2023/04/14 01:53:32;;;;;;;18.00;3.63;;;;;;;-145.69;100.00;52521.63;5070454;28;20226;-77
2023/04/14 01:56:01;;;;;;;10.90;3.80;;;;;;;-145.69;100.00;52551.31;5052783;28;20200;-78
2023/04/14 01:58:30;;;;;;;15.50;3.27;;;;;;;-145.69;100.00;52460.22;5052456;28;20203;-77
2023/04/14 02:00:57;;;;;;;7.17;3.30;;;;;;;-145.69;100.00;52487.97;5052599;28;20659;-77
2023/04/14 02:03:26;;;;;;;11.87;3.13;;;;;;;-145.69;100.00;52511.72;5052861;28;20204;-77
2023/04/14 02:05:55;;;;;;;95.20;5.43;;;;;;;-145.69;100.00;52503.81;5052584;28;20773;-77
2023/04/14 02:08:24;;;;;;;8.47;3.80;;;;;;;-145.69;100.00;52531.53;5052558;28;20669;-78
2023/04/14 02:10:53;;;;;;;11.33;3.50;;;;;;;-145.69;100.00;52511.72;5052566;28;20202;-78
2023/04/14 02:13:22;;;;;;;8.67;3.30;;;;;;;-145.69;100.00;52507.75;5062349;28;20653;-77
2023/04/14 02:15:51;;;;;;;8.30;2.93;;;;;;;-145.69;100.00;52511.72;5072379;28;20281;-78
2023/04/14 02:18:20;;;;;;;6.63;3.00;;;;;;;-145.69;100.00;52501.81;5072594;28;20199;-77
2023/04/14 02:20:48;;;;;;;10.53;2.93;;;;;;;-145.69;100.00;52531.53;5072496;28;20202;-77
2023/04/14 02:23:16;;;;;;;11.83;3.23;;;;;;;-145.69;100.00;52491.91;5072550;28;20195;-77
2023/04/14 02:25:51;;;;;;;12.83;3.97;;;;;;;-145.69;100.00;52519.63;5072429;28;20208;-77
2023/04/14 02:28:21;;;;;;;8.60;2.80;;;;;;;-145.69;100.00;52507.75;5072506;28;20195;-77
2023/04/14 02:30:51;;;;;;;19.50;3.63;;;;;;;-145.69;100.00;52519.63;5072257;28;20202;-77
2023/04/14 02:33:21;;;;;;;11.53;3.10;;;;;;;-145.69;100.00;52476.06;5072552;28;20195;-77
2023/04/14 02:35:56;;;;;;;9.33;3.17;;;;;;;-145.69;100.00;52495.88;5074766;28;20285;-77
2023/04/14 02:38:29;;;;;;;13.67;3.47;;;;;;;-145.69;100.00;52511.72;5076175;28;20210;-77
2023/04/14 02:40:56;;;;;;;10.83;3.20;;;;;;;-145.69;100.00;52527.56;5076130;28;20236;-77
2023/04/14 02:43:29;;;;;;;7.53;3.00;;;;;;;-145.69;100.00;52521.63;5076135;28;20222;-77
2023/04/14 02:45:56;;;;;;;10.73;3.13;;;;;;;-145.69;100.00;52495.88;5075641;28;20290;-77
2023/04/14 02:48:26;;;;;;;9.20;3.23;;;;;;;-145.69;100.00;52507.75;5075876;28;20195;-77
2023/04/14 02:50:54;;;;;;;15.43;3.27;;;;;;;-145.69;100.00;52527.56;5075774;28;20245;-77
2023/04/14 02:53:24;;;;;;;12.73;3.20;;;;;;;-145.69;100.00;52470.13;5076185;28;20199;-76
2023/04/14 02:55:51;;;;;;;11.33;3.33;;;;;;;-145.69;100.00;52495.88;5075763;28;20203;-77
2023/04/14 02:58:19;;;;;;;8.13;2.80;;;;;;;-145.69;100.00;52535.47;5075955;28;20206;-77
2023/04/14 03:00:46;;;;;;;10.30;2.73;;;;;;;-145.69;100.00;52503.81;5075872;28;20293;-77
2023/04/14 03:03:14;;;;;;;18.10;3.10;;;;;;;-145.69;100.00;52507.75;5075000;28;20256;-77
2023/04/14 03:05:41;;;;;;;14.67;3.60;;;;;;;-145.69;100.00;52509.75;5075271;28;20210;-77
2023/04/14 03:08:10;;;;;;;19.90;3.87;;;;;;;-145.69;100.00;52539.44;5075656;28;20202;-77
2023/04/14 03:10:39;;;;;;;17.17;4.33;;;;;;;-145.69;100.00;52523.59;5075718;28;20328;-77
2023/04/14 03:13:07;;;;;;;12.97;3.80;;;;;;;-145.69;100.00;52503.81;5075436;28;20206;-77
2023/04/14 03:15:36;;;;;;;9.80;3.33;;;;;;;-145.69;100.00;52535.47;5075318;28;20199;-77
2023/04/14 03:18:03;;;;;;;19.87;4.40;;;;;;;-145.69;100.00;52529.53;5075664;28;20315;-78
2023/04/14 03:20:33;;;;;;;18.70;3.70;;;;;;;-145.69;100.00;52509.75;5075106;28;20237;-77
2023/04/14 03:23:04;;;;;;;9.97;3.40;;;;;;;-145.69;100.00;52547.38;5075551;28;20248;-78
2023/04/14 03:25:32;;;;;;;14.13;3.13;;;;;;;-145.69;100.00;52537.47;5075202;28;20244;-77
2023/04/14 03:28:02;;;;;;;13.17;3.33;;;;;;;-145.69;100.00;52527.56;5075211;28;20199;-77
2023/04/14 03:30:30;;;;;;;17.47;3.50;;;;;;;-145.69;100.00;52517.66;5075208;28;20198;-77
2023/04/14 03:33:00;;;;;;;24.40;3.60;;;;;;;-145.69;100.00;52539.44;5075137;28;20202;-77
2023/04/14 03:35:28;;;;;;;21.33;3.40;;;;;;;-145.69;100.00;52545.38;5075097;28;20199;-76
2023/04/14 03:37:58;;;;;;;11.00;3.60;;;;;;;-145.69;100.00;52505.78;5074784;28;20199;-76
2023/04/14 03:40:29;;;;;;;14.83;3.30;;;;;;;-145.69;100.00;52519.63;5074680;28;20222;-77
2023/04/14 03:42:57;;;;;;;17.20;3.50;;;;;;;-145.69;100.00;52511.72;5070247;28;20195;-77
2023/04/14 03:45:26;;;;;;;13.77;3.50;;;;;;;-145.69;100.00;52523.59;5075003;28;20732;-77
2023/04/14 03:47:57;;;;;;;13.43;3.67;;;;;;;-145.69;100.00;52541.44;5063111;28;20208;-76
2023/04/14 03:50:28;;;;;;;17.43;4.23;;;;;;;-145.69;100.00;52535.47;5054868;28;20211;-77
2023/04/14 03:52:57;;;;;;;12.60;3.47;;;;;;;-145.69;100.00;52507.75;5070250;28;20290;-76
2023/04/14 03:55:26;;;;;;;7.87;2.97;;;;;;;-145.69;100.00;52509.75;5074687;28;20652;-76
2023/04/14 03:57:56;;;;;;;19.47;3.80;;;;;;;-145.69;100.00;52529.53;5074494;28;20248;-77
2023/04/14 04:00:25;;;;;;;12.40;3.50;;;;;;;-145.69;100.00;52539.44;5074376;28;20222;-77
2023/04/14 04:02:53;;;;;;;15.43;3.47;;;;;;;-145.69;100.00;52521.63;5074410;28;20202;-77
2023/04/14 04:05:24;;;;;;;13.20;3.63;;;;;;;-145.69;100.00;52525.59;5074451;28;20209;-76
2023/04/14 04:07:51;;;;;;;24.70;4.30;;;;;;;-145.69;100.00;52527.56;5074435;28;20202;-76
2023/04/14 04:10:20;;;;;;;19.27;3.97;;;;;;;-145.69;100.00;52559.25;5074430;28;20191;-77
2023/04/14 04:12:50;;;;;;;16.50;3.73;;;;;;;-145.69;100.00;52529.53;5074400;28;20202;-76
2023/04/14 04:15:16;;;;;;;12.83;4.17;;;;;;;-145.69;100.00;52551.31;5074462;28;20203;-76
2023/04/14 04:17:47;;;;;;;16.53;3.80;;;;;;;-145.69;100.00;52543.41;5074290;28;20206;-77
2023/04/14 04:20:15;;;;;;;11.57;3.70;;;;;;;-145.69;100.00;52531.53;5073728;28;20759;-76
2023/04/14 04:22:44;;;;;;;13.27;3.53;;;;;;;-145.69;100.00;52543.41;5074517;28;20206;-76
2023/04/14 04:25:13;;;;;;;19.57;4.00;;;;;;;-145.69;100.00;52563.22;5074227;28;20289;-76
2023/04/14 04:27:39;;;;;;;17.83;4.27;;;;;;;-145.69;100.00;52563.22;5073735;28;20199;-76
2023/04/14 04:30:07;;;;;;;16.37;3.93;;;;;;;-145.69;100.00;52527.56;5073925;28;20195;-76
2023/04/14 04:32:36;;;;;;;15.47;3.53;;;;;;;-145.69;100.00;52519.63;5073729;28;20729;-77
2023/04/14 04:35:05;;;;;;;18.30;3.73;;;;;;;-145.69;100.00;52521.63;5073770;28;20213;-76
2023/04/14 04:37:33;;;;;;;14.83;3.57;;;;;;;-145.69;100.00;52527.56;5074069;28;20626;-76
2023/04/14 04:40:00;;;;;;;19.73;3.67;;;;;;;-145.69;100.00;52529.53;5073186;28;20228;-76
2023/04/14 04:42:27;;;;;;;28.27;4.00;;;;;;;-145.69;100.00;52539.44;5072361;28;20191;-76
2023/04/14 04:44:53;;;;;;;27.57;4.20;;;;;;;-145.69;100.00;52531.53;5072943;28;20227;-76
2023/04/14 04:47:20;;;;;;;18.73;4.30;;;;;;;-145.69;100.00;52539.44;5073627;28;20198;-76
2023/04/14 04:49:46;;;;;;;20.80;4.40;;;;;;;-145.69;100.00;52507.75;5073471;28;20206;-76
2023/04/14 04:52:14;;;;;;;18.43;3.60;;;;;;;-145.69;100.00;52545.38;5072863;28;20191;-76
2023/04/14 04:54:41;;;;;;;20.60;4.37;;;;;;;-145.69;100.00;52521.63;5073563;28;20725;-76
2023/04/14 04:57:07;;;;;;;17.70;3.67;;;;;;;-145.69;100.00;52535.47;5073335;28;20199;-75
2023/04/14 04:59:34;;;;;;;12.67;3.00;;;;;;;-145.69;100.00;52505.78;5072669;28;20317;-77
2023/04/14 05:02:00;;;;;;;24.33;3.70;;;;;;;-145.69;100.00;52539.44;5072958;28;20549;-76
2023/04/14 05:04:27;;;;;;;21.53;3.43;;;;;;;-145.69;100.00;52519.63;5073382;28;20198;-76
2023/04/14 05:06:56;;;;;;;22.20;3.90;;;;;;;-145.69;100.00;52527.56;5073387;28;20201;-76
2023/04/14 05:09:24;;;;;;;19.00;3.97;;;;;;;-145.69;100.00;52533.50;5073413;28;20210;-76
2023/04/14 05:11:50;;;;;;;18.07;3.40;;;;;;;-145.69;100.00;52539.44;5073103;28;20199;-76
2023/04/14 05:14:17;;;;;;;22.30;3.93;;;;;;;-145.69;100.00;52523.59;5072909;28;20199;-76
2023/04/14 05:16:43;;;;;;;12.17;3.27;;;;;;;-145.69;100.00;52551.31;5073033;28;20199;-76
2023/04/14 05:19:10;;;;;;;16.77;3.37;;;;;;;-145.69;100.00;52517.66;5073069;28;20206;-76
2023/04/14 05:21:36;;;;;;;16.77;3.57;;;;;;;-145.69;100.00;52529.53;5072765;28;20232;-76
2023/04/14 05:24:03;;;;;;;24.53;3.70;;;;;;;-145.69;100.00;52543.41;5073226;28;20206;-77
2023/04/14 05:26:31;;;;;;;16.00;3.23;;;;;;;-145.69;100.00;52501.81;5073117;28;20293;-76
2023/04/14 05:28:57;;;;;;;15.83;3.80;;;;;;;-145.69;100.00;52503.81;5072953;28;20260;-76
2023/04/14 05:31:24;;;;;;;28.57;3.60;;;;;;;-145.69;100.00;52527.56;5072398;28;20286;-77
2023/04/14 05:33:50;;;;;;;17.70;3.17;;;;;;;-145.69;100.00;52513.69;5073124;28;20209;-76
2023/04/14 05:36:17;;;;;;;20.27;3.43;;;;;;;-145.69;100.00;52533.50;5072997;28;20210;-76
2023/04/14 05:38:44;;;;;;;12.73;3.33;;;;;;;-145.69;100.00;52493.91;5068059;28;20283;-76
2023/04/14 05:41:10;;;;;;;21.33;3.10;;;;;;;-145.69;100.00;52535.47;5072882;28;20223;-76
2023/04/14 05:43:38;;;;;;;25.77;4.10;;;;;;;-145.69;100.00;52561.22;5072672;28;20246;-76
2023/04/14 05:46:05;;;;;;;17.13;3.50;;;;;;;-145.69;100.00;52543.41;5073013;28;20202;-76
2023/04/14 05:48:32;;;;;;;25.03;4.03;;;;;;;-145.69;100.00;52527.56;5072280;28;20195;-76
2023/04/14 05:50:58;;;;;;;17.33;3.43;;;;;;;-145.69;100.00;52527.56;5072298;28;20653;-76
2023/04/14 05:53:26;;;;;;;20.70;3.47;;;;;;;-145.69;100.00;52545.38;5072754;28;20208;-77
2023/04/14 05:55:52;;;;;;;18.95;4.03;;;;;;;-145.69;100.00;52523.59;5072380;28;20457;-76
2023/04/14 05:58:19;;;;;;;18.77;3.20;;;;;;;-145.69;100.00;52503.81;5072408;28;20202;-77
2023/04/14 06:00:50;;;;;;;14.80;3.20;;;;;;;-145.69;100.00;52480.03;5072454;28;20624;-76
2023/04/14 06:03:16;;;;;;;19.03;3.23;;;;;;;-145.69;100.00;52529.53;5072468;28;20242;-77
2023/04/14 06:05:43;;;;;;;8.07;2.60;;;;;;;-145.69;100.00;52535.47;5072271;28;20206;-76
2023/04/14 06:08:09;;;;;;;14.97;3.33;;;;;;;-145.69;100.00;52545.38;5072510;28;20226;-76
2023/04/14 06:10:36;;;;;;;13.63;2.93;;;;;;;-145.69;100.00;52545.38;5074433;28;20244;-78
2023/04/14 06:13:02;;;;;;;25.40;3.43;;;;;;;-145.69;100.00;52543.41;5076973;28;20207;-77
2023/04/14 06:15:29;;;;;;;14.27;3.07;;;;;;;-145.69;100.00;52537.47;5076676;28;20202;-77
2023/04/14 06:17:57;;;;;;;13.80;3.10;;;;;;;-145.69;100.00;52541.44;5076489;28;20285;-77
2023/04/14 06:20:24;;;;;;;12.73;2.63;;;;;;;-145.69;100.00;52521.63;5076002;28;20237;-77
2023/04/14 06:22:51;;;;;;;14.27;2.70;;;;;;;-145.69;100.00;52513.69;5076646;28;20198;-78
2023/04/14 06:25:17;;;;;;;15.60;3.07;;;;;;;-145.69;100.00;52517.66;5076291;28;20207;-78
2023/04/14 06:27:44;;;;;;;10.10;3.17;;;;;;;-145.69;100.00;52513.69;5076103;28;20671;-77
2023/04/14 06:30:11;;;;;;;11.50;2.87;;;;;;;-145.69;100.00;52515.69;5076345;28;20202;-77
2023/04/14 06:32:37;;;;;;;9.27;2.47;;;;;;;-145.69;100.00;52519.63;5076153;28;20199;-78
2023/04/14 06:35:07;;;;;;;19.20;3.07;;;;;;;-145.69;100.00;52531.53;5076072;28;20194;-78
2023/04/14 06:37:34;;;;;;;11.53;2.10;;;;;;;-145.69;100.00;52499.84;5075660;28;20191;-78
2023/04/14 06:40:00;;;;;;;11.60;2.60;;;;;;;-145.69;100.00;52527.56;5075572;28;20218;-78
2023/04/14 06:42:27;;;;;;;20.83;5.10;;;;;;;-145.69;100.00;52513.69;5075912;28;20222;-77
2023/04/14 06:44:54;;;;;;;13.20;4.57;;;;;;;-145.69;100.00;52515.69;5075793;28;20234;-77
2023/04/14 06:47:21;;;;;;;9.40;3.43;;;;;;;-145.69;100.00;52535.47;5075816;28;20207;-77
2023/04/14 06:49:47;;;;;;;13.43;3.83;;;;;;;-145.69;100.00;52523.59;5056115;28;20196;-77
2023/04/14 06:52:15;;;;;;;13.63;4.03;;;;;;;-145.69;100.00;52537.47;5055874;28;20212;-79
2023/04/14 06:54:42;;;;;;;7.90;3.10;;;;;;;-145.69;100.00;52489.94;5062773;28;20203;-78
2023/04/14 06:57:09;;;;;;;8.83;2.60;;;;;;;-145.69;100.00;52515.69;5075723;28;20201;-78
2023/04/14 06:59:37;;;;;;;18.93;2.90;;;;;;;-145.69;100.00;52491.91;5075445;28;20194;-79
2023/04/14 07:02:04;;;;;;;11.10;2.93;;;;;;;-145.69;100.00;52511.72;5075415;28;20256;-78
2023/04/14 07:04:30;;;;;;;15.30;2.73;;;;;;;-145.69;100.00;52523.59;5075596;28;20203;-78
2023/04/14 07:06:59;;;;;;;13.50;2.87;;;;;;;-145.69;100.00;52482.00;5075421;28;20527;-78
2023/04/14 07:09:28;;;;;;;12.83;2.70;;;;;;;-145.69;100.00;52499.84;5075584;28;20230;-79
2023/04/14 07:11:55;;;;;;;9.60;2.73;;;;;;;-145.69;100.00;52493.91;5074996;28;20199;-79
2023/04/14 07:14:22;;;;;;;10.57;2.60;;;;;;;-145.69;100.00;52523.59;5075520;28;20203;-78
2023/04/14 07:16:50;;;;;;;13.73;3.00;;;;;;;-145.69;100.00;52527.56;5075353;28;20195;-78
2023/04/14 07:19:16;;;;;;;18.90;3.57;;;;;;;-145.69;100.00;52503.81;5075414;28;20205;-78
2023/04/14 07:21:44;;;;;;;12.40;2.90;;;;;;;-145.69;100.00;52493.91;5074235;28;20265;-79
2023/04/14 07:24:10;;;;;;;10.23;2.80;;;;;;;-145.69;100.00;52487.97;5075071;28;20658;-78
2023/04/14 07:26:38;;;;;;;8.67;2.37;;;;;;;-145.69;100.00;52497.84;5075097;28;20194;-79
2023/04/14 07:29:05;;;;;;;4.90;1.97;;;;;;;-145.69;100.00;52499.84;5075423;28;20202;-79
2023/04/14 07:31:33;;;;;;;12.37;2.60;;;;;;;-145.69;100.00;52519.63;5073860;28;20199;-78
2023/04/14 07:34:00;;;;;;;10.67;2.10;;;;;;;-145.69;100.00;52501.81;5073349;28;20649;-80
2023/04/14 07:36:27;;;;;;;9.67;1.80;;;;;;;-145.69;100.00;52491.91;5075126;28;20190;-76
2023/04/14 07:38:54;;;;;;;9.47;2.37;;;;;;;-145.69;100.00;52499.84;5075093;28;20199;-77
2023/04/14 07:41:20;;;;;;;5.50;1.97;;;;;;;-145.69;100.00;52491.91;5075109;28;20230;-79
2023/04/14 07:43:48;;;;;;;9.97;2.30;;;;;;;-145.69;100.00;52491.91;5074770;28;20704;-79
2023/04/14 07:46:14;;;;;;;7.47;2.20;;;;;;;-145.69;100.00;52495.88;5074828;28;20199;-79
2023/04/14 07:48:41;;;;;;;11.03;2.43;;;;;;;-145.69;100.00;52458.25;5074806;28;20618;-78
2023/04/14 07:51:08;;;;;;;6.90;2.00;;;;;;;-145.69;100.00;52460.22;5075111;28;20579;-77
2023/04/14 07:53:39;;;;;;;9.80;2.35;;;;;;;-145.69;100.00;52476.06;5074055;28;20445;-76
2023/04/14 07:56:05;;;;;;;10.70;1.90;;;;;;;-145.69;100.00;52491.91;5074255;28;20305;-77
2023/04/14 07:58:32;;;;;;;12.23;2.40;;;;;;;-145.69;100.00;52470.13;5074887;28;20206;-77
2023/04/14 08:01:00;;;;;;;11.30;2.20;;;;;;;-145.69;100.00;52484.00;5074456;28;20226;-76
2023/04/14 08:03:26;;;;;;;12.77;2.50;;;;;;;-145.69;100.00;52472.13;5073993;28;20796;-79
2023/04/14 08:05:53;;;;;;;11.10;2.40;;;;;;;-145.69;100.00;52485.97;5074582;28;20206;-79
2023/04/14 08:08:19;;;;;;;11.97;2.57;;;;;;;-145.69;100.00;52452.31;5074167;28;20252;-79
2023/04/14 08:10:46;;;;;;;8.37;2.13;;;;;;;-145.69;100.00;52484.00;5074429;28;20256;-80
2023/04/14 08:13:12;;;;;;;7.10;2.00;;;;;;;-145.69;100.00;52452.31;5073940;28;20767;-80
2023/04/14 08:15:39;;;;;;;8.87;1.93;;;;;;;-145.69;100.00;52460.22;5074357;28;20214;-79
2023/04/14 08:18:07;;;;;;;5.63;1.80;;;;;;;-145.69;100.00;52480.03;5074333;28;20205;-78
2023/04/14 08:20:34;;;;;;;5.07;1.90;;;;;;;-145.69;100.00;52464.19;5074426;28;20223;-80
2023/04/14 08:23:00;;;;;;;10.97;2.13;;;;;;;-145.69;100.00;52458.25;5073857;28;20209;-77
2023/04/14 08:25:27;;;;;;;8.23;1.97;;;;;;;-145.69;100.00;52497.84;5073945;28;20598;-77
2023/04/14 08:27:53;;;;;;;7.60;1.67;;;;;;;-145.69;100.00;52454.28;5074101;28;20669;-76
2023/04/14 08:30:20;;;;;;;7.13;1.83;;;;;;;-145.69;100.00;52480.03;5073669;28;20195;-77
2023/04/14 08:32:46;;;;;;;7.73;1.57;;;;;;;-145.69;100.00;52474.09;5073476;28;20201;-76
2023/04/14 08:35:15;;;;;;;6.17;1.93;;;;;;;-145.69;100.00;52456.28;5074041;28;20218;-78
2023/04/14 08:37:41;;;;;;;6.63;1.80;;;;;;;-145.69;100.00;52458.25;5073681;28;20230;-79
2023/04/14 08:40:10;;;;;;;7.10;1.57;;;;;;;-145.69;100.00;52444.38;5073881;28;20198;-78
2023/04/14 08:42:37;;;;;;;7.53;1.80;;;;;;;-145.69;100.00;52456.28;5073314;28;20223;-78
2023/04/14 08:45:05;;;;;;;13.53;2.30;;;;;;;-145.69;100.00;52458.25;5071083;28;20234;-79
2023/04/14 08:47:35;;;;;;;6.93;1.90;;;;;;;-145.69;100.00;52487.97;5072291;28;20274;-76
2023/04/14 08:50:04;;;;;;;6.23;1.30;;;;;;;-145.69;100.00;52424.59;5073304;28;20653;-76
2023/04/14 08:52:36;;;;;;;5.03;2.07;;;;;;;-145.69;100.00;52430.53;5073387;28;20565;-76
2023/04/14 08:55:03;;;;;;;4.13;1.20;;;;;;;-145.69;100.00;52476.06;5073453;28;20206;-76
2023/04/14 08:57:31;;;;;;;3.77;1.30;;;;;;;-145.69;100.00;52507.75;5073199;28;20203;-76
2023/04/14 08:59:58;;;;;;;5.80;1.43;;;;;;;-145.69;100.00;52446.38;5073486;28;20202;-77
2023/04/14 09:02:26;;;;;;;6.13;1.43;;;;;;;-145.69;100.00;52452.31;5072165;28;20247;-77
2023/04/14 09:04:53;;;;;;;4.00;1.53;;;;;;;-145.69;100.00;52460.22;5072595;28;20670;-77
2023/04/14 09:07:22;;;;;;;6.87;1.43;;;;;;;-145.69;99.52;52448.34;5073288;28;20225;-80
2023/04/14 09:09:51;;;;;;;8.87;1.77;;;;;;;-145.69;99.81;52474.09;5072002;28;20209;-79
2023/04/14 09:12:20;;;;;;;4.93;1.50;;;;;;;-145.69;91.45;52452.31;5073700;28;20226;-77
2023/04/14 09:14:48;;;;;;;7.33;1.67;;;;;;;-145.69;100.00;52456.28;5073304;28;20202;-76
2023/04/14 09:17:15;;;;;;;5.87;1.33;;;;;;;-145.69;96.80;52448.34;5073232;28;20194;-75
2023/04/14 09:19:42;;;;;;;3.40;1.30;;;;;;;-145.69;96.91;52432.50;5072850;28;20202;-76
2023/04/14 09:22:10;;;;;;;8.33;1.70;;;;;;;-145.69;96.96;52452.31;5072607;28;20218;-77
2023/04/14 09:24:36;;;;;;;6.93;1.40;;;;;;;-145.69;100.00;52452.31;5072717;28;20233;-77
2023/04/14 09:27:05;;;;;;;4.57;1.60;;;;;;;-145.69;100.00;52448.34;5072974;28;20685;-78
2023/04/14 09:29:32;;;;;;;6.03;1.43;;;;;;;-145.69;85.73;52436.47;5072666;28;20302;-78
2023/04/14 09:31:59;;;;;;;7.47;1.40;;;;;;;-145.69;74.55;52434.47;5071701;28;20526;-77
2023/04/14 09:34:25;;;;;;;9.67;1.73;;;;;;;-145.69;79.92;52434.47;5072764;28;20265;-77
2023/04/14 09:37:09;;;;;;;6.40;1.73;;;;;;;-145.69;79.10;52442.41;5072565;28;20210;-78
2023/04/14 09:39:47;;;;;;;8.73;2.00;;;;;;;-145.69;91.47;52406.75;5068440;28;20195;-78
2023/04/14 09:42:16;;;;;;;8.67;1.50;;;;;;;-145.69;77.42;52460.22;5072527;28;20229;-78
2023/04/14 09:44:54;;;;;;;3.70;1.40;;;;;;;-145.69;84.17;52434.47;5072056;28;20296;-79
2023/04/14 09:47:23;;;;;;;8.57;1.50;;;;;;;-145.69;66.90;52416.66;5072324;28;20206;-78
2023/04/14 09:49:57;;;;;;;8.83;1.50;;;;;;;-145.69;67.15;52446.38;5072399;28;20289;-78
2023/04/14 09:52:37;;;;;;;4.57;1.30;;;;;;;-145.69;66.43;52440.44;5072478;28;20202;-78
2023/04/14 09:55:06;;;;;;;6.77;1.33;;;;;;;-145.69;76.90;52420.63;5072266;28;20198;-78
2023/04/14 09:57:36;;;;;;;3.70;0.80;;;;;;;-145.69;71.84;52388.94;5072511;28;20228;-78
2023/04/14 10:00:19;;;;;;;4.20;1.00;;;;;;;-145.69;68.34;52424.59;5072130;28;20205;-80
2023/04/14 10:02:50;;;;;;;4.83;1.10;;;;;;;-145.69;55.74;52381.00;5072171;28;20700;-78
2023/04/14 10:05:19;;;;;;;8.83;1.50;;;;;;;-145.69;59.56;52408.75;5072459;28;20301;-79
2023/04/14 10:07:46;;;;;;;2.70;0.97;;;;;;;-145.69;54.69;52476.06;5072166;28;20561;-78
2023/04/14 10:10:13;;;;;;;4.47;1.37;;;;;;;-145.69;65.19;52428.53;5072176;28;20255;-76
2023/04/14 10:12:43;;;;;;;8.87;1.83;;;;;;;-145.69;51.94;52444.38;5071893;28;20206;-76
2023/04/14 10:15:13;;;;;;;3.13;1.30;;;;;;;-145.69;47.55;52412.69;5072653;28;20664;-79
2023/04/14 10:17:41;;;;;;;6.83;1.40;;;;;;;-145.69;45.52;52412.69;5076641;28;20285;-80
2023/04/14 10:20:10;;;;;;;7.70;1.40;;;;;;;-145.69;51.39;52426.56;5072215;28;20653;-79
2023/04/14 10:22:38;;;;;;;9.43;1.57;;;;;;;-145.69;53.25;52420.63;5072224;28;20226;-79
2023/04/14 10:25:06;;;;;;;3.87;1.10;;;;;;;-145.69;52.79;52396.84;5072285;28;20211;-81
2023/04/14 10:27:35;;;;;;;3.53;1.23;;;;;;;-145.69;52.37;52412.69;5052498;28;20215;-79
2023/04/14 10:30:07;;;;;;;4.33;1.47;;;;;;;-145.69;59.88;52428.53;5052240;28;20204;-80
2023/04/14 10:32:36;;;;;;;6.47;1.20;;;;;;;-145.69;55.67;52452.31;5052268;28;20214;-80
2023/04/14 10:35:06;;;;;;;7.07;1.70;;;;;;;-145.69;57.89;52422.59;5070070;28;20199;-79
2023/04/14 10:37:33;;;;;;;6.63;1.30;;;;;;;-145.69;64.42;52383.00;5052146;28;20233;-79
2023/04/14 10:40:04;;;;;;;8.00;1.70;;;;;;;-145.69;61.05;52390.91;5052419;28;20200;-79
2023/04/14 10:42:51;;;;;;;8.43;1.80;;;;;;;-145.69;66.21;52381.00;5052529;28;20559;-79
2023/04/14 10:45:19;;;;;;;4.97;1.30;;;;;;;-145.69;67.07;52388.94;5053658;28;20293;-79
2023/04/14 10:47:46;;;;;;;3.67;1.37;;;;;;;-145.69;65.97;52365.16;5071937;28;20201;-79
2023/04/14 10:50:14;;;;;;;5.60;1.37;;;;;;;-145.69;70.00;52390.91;5071975;28;20203;-79
2023/04/14 10:52:53;;;;;;;7.47;1.20;;;;;;;-145.69;59.40;52381.00;5072106;28;20195;-80
2023/04/14 10:55:22;;;;;;;3.30;1.47;;;;;;;-145.69;55.53;52408.75;5071645;28;20202;-80
2023/04/14 10:57:48;;;;;;;6.63;1.70;;;;;;;-145.69;55.77;52412.69;5074421;28;20198;-80
2023/04/14 11:00:26;;;;;;;4.63;1.50;;;;;;;-145.69;54.47;52420.63;5075663;28;20202;-80
2023/04/14 11:03:03;;;;;;;16.17;1.87;;;;;;;-145.69;56.89;52400.81;5075153;28;20218;-79
2023/04/14 11:05:32;;;;;;;7.53;1.30;;;;;;;-145.69;65.06;52377.06;5075308;28;20194;-79
2023/04/14 11:08:00;;;;;;;2.97;1.10;;;;;;;-145.69;50.09;52367.16;5075590;28;20199;-79
2023/04/14 11:10:36;;;;;;;3.20;1.23;;;;;;;-145.69;49.46;52353.28;5075237;28;20199;-80
2023/04/14 11:13:05;;;;;;;4.40;1.27;;;;;;;-145.69;47.50;52412.69;5075862;28;20209;-80